Time;durP1;ratioP1;P1;durP2;ratioP2;P2;SDS_P1;SDS_P2;PMS_P1;PMS_P2;Temp;Humidity;BMP_temperature;BMP_pressure;BME280_temperature;BME280_humidity;BME280_pressure;Samples;Min_cycle;Max_cycle;Signal;HPM_P1;HPM_P2
2020/12/28 00:01:13;;;;;;;3.22;2.47;;;;;;;4.90;83.06;96705.41;10299092;28;20749;-70
2020/12/28 00:06:15;;;;;;;2.40;2.20;;;;;;;4.91;83.17;96707.03;10301603;28;20062;-71
2020/12/28 00:11:18;;;;;;;3.25;2.00;;;;;;;4.95;83.43;96705.72;10303991;28;20057;-71
2020/12/28 00:16:19;;;;;;;4.53;2.67;;;;;;;4.98;83.21;96699.25;10299321;28;20117;-71
2020/12/28 00:21:20;;;;;;;2.80;1.88;;;;;;;5.03;83.36;96696.09;10299776;28;20096;-71
2020/12/28 00:26:21;;;;;;;1.80;1.70;;;;;;;4.98;84.35;96683.44;10319476;28;20081;-71
2020/12/28 00:31:23;;;;;;;2.00;1.70;;;;;;;4.94;85.55;96675.06;10314124;28;20058;-71
2020/12/28 00:36:24;;;;;;;1.92;0.90;;;;;;;4.91;87.20;96666.69;10298389;28;20073;-69
2020/12/28 00:41:25;;;;;;;1.13;0.68;;;;;;;5.05;86.83;96675.66;10321146;28;20073;-70
2020/12/28 00:46:26;;;;;;;0.90;0.70;;;;;;;5.14;86.98;96677.22;10296001;28;20082;-70
2020/12/28 00:51:28;;;;;;;2.50;0.98;;;;;;;5.21;87.24;96672.06;10301201;28;20053;-70
2020/12/28 00:56:30;;;;;;;1.15;0.52;;;;;;;5.29;87.89;96670.19;10296848;28;20058;-69
2020/12/28 01:01:31;;;;;;;1.30;0.60;;;;;;;5.34;87.79;96672.28;10295318;28;20098;-71
2020/12/28 01:06:33;;;;;;;1.65;0.93;;;;;;;5.38;87.83;96656.94;10304343;28;20054;-70
2020/12/28 01:11:34;;;;;;;1.30;0.77;;;;;;;5.40;87.22;96649.66;10293691;28;20062;-69
2020/12/28 01:16:35;;;;;;;1.73;0.63;;;;;;;5.38;87.34;96649.03;10311937;28;20058;-69
2020/12/28 01:21:37;;;;;;;0.55;0.43;;;;;;;5.39;87.48;96638.28;10303033;28;20129;-70
2020/12/28 01:26:38;;;;;;;0.85;0.50;;;;;;;5.35;88.21;96646.75;10300833;28;20046;-70
2020/12/28 01:31:40;;;;;;;2.05;0.77;;;;;;;5.41;88.03;96648.66;10300463;28;20046;-70
2020/12/28 01:36:41;;;;;;;1.92;0.73;;;;;;;5.45;87.76;96657.84;10300631;28;20127;-70
2020/12/28 01:41:42;;;;;;;1.15;0.80;;;;;;;5.36;87.67;96664.19;10301008;28;20429;-70
2020/12/28 01:46:44;;;;;;;1.40;0.50;;;;;;;5.31;87.13;96662.09;10295975;28;20070;-69
2020/12/28 01:51:45;;;;;;;0.82;0.57;;;;;;;5.35;87.31;96652.03;10296622;28;20055;-69
2020/12/28 01:56:47;;;;;;;1.25;0.40;;;;;;;5.40;87.05;96647.00;10290571;28;20137;-69
2020/12/28 02:01:51;;;;;;;0.70;0.60;;;;;;;5.36;87.22;96643.09;10294110;28;20862;-69
2020/12/28 02:06:53;;;;;;;0.68;0.45;;;;;;;5.39;87.14;96648.00;10329139;28;20046;-69
2020/12/28 02:11:54;;;;;;;1.80;0.60;;;;;;;5.31;87.53;96655.00;10311855;28;20525;-69
2020/12/28 02:16:56;;;;;;;0.70;0.60;;;;;;;5.30;87.53;96640.19;10303389;28;20050;-70
2020/12/28 02:21:58;;;;;;;0.57;0.47;;;;;;;5.29;87.58;96617.44;10302818;28;20053;-69
2020/12/28 02:26:59;;;;;;;1.02;0.70;;;;;;;5.35;87.45;96630.91;10298300;28;20066;-71
2020/12/28 02:32:00;;;;;;;1.77;0.80;;;;;;;5.45;87.73;96634.94;10328013;28;20058;-69
2020/12/28 02:37:02;;;;;;;1.33;1.08;;;;;;;5.43;88.26;96631.63;10313516;28;20038;-71
2020/12/28 02:42:03;;;;;;;1.50;1.40;;;;;;;5.49;88.68;96641.50;10340523;28;22497;-70
2020/12/28 02:47:11;;;;;;;1.10;1.00;;;;;;;5.40;88.13;96618.00;10486920;27;20899;-63
2020/12/28 02:52:12;;;;;;;1.60;0.90;;;;;;;5.39;88.55;96626.91;10480622;28;20063;-63
2020/12/28 02:57:14;;;;;;;0.90;0.80;;;;;;;5.42;88.25;96629.19;10440150;28;20615;-65
2020/12/28 03:02:15;;;;;;;0.75;0.60;;;;;;;5.44;87.34;96624.56;10457443;28;20048;-64
2020/12/28 03:07:16;;;;;;;1.05;0.60;;;;;;;5.46;87.40;96625.19;10461376;27;20051;-64
2020/12/28 03:12:17;;;;;;;0.57;0.40;;;;;;;5.38;87.39;96641.09;10471077;27;20113;-63
2020/12/28 03:17:19;;;;;;;0.50;0.30;;;;;;;5.34;87.32;96629.28;10441054;28;21643;-63
2020/12/28 03:22:20;;;;;;;0.50;0.30;;;;;;;5.29;87.29;96614.00;10453952;28;20091;-63
2020/12/28 03:27:21;;;;;;;0.40;0.28;;;;;;;5.34;87.25;96616.09;10423837;28;20122;-63
2020/12/28 03:32:22;;;;;;;0.25;0.25;;;;;;;5.39;86.58;96616.34;10432145;28;20080;-63
2020/12/28 03:37:24;;;;;;;0.68;0.28;;;;;;;5.47;86.59;96611.00;10472715;28;20056;-68
2020/12/28 03:42:25;;;;;;;1.50;0.32;;;;;;;5.42;85.98;96605.44;10468024;28;20057;-64
2020/12/28 03:47:27;;;;;;;0.40;0.30;;;;;;;5.45;85.71;96610.34;10480859;27;20397;-63
2020/12/28 03:52:29;;;;;;;0.70;0.35;;;;;;;5.47;86.38;96609.19;10477201;28;20045;-64
2020/12/28 03:57:30;;;;;;;0.40;0.20;;;;;;;5.48;86.45;96592.38;10459625;28;20057;-63
2020/12/28 04:02:31;;;;;;;1.42;0.40;;;;;;;5.58;86.30;96589.44;10491209;28;20178;-63
2020/12/28 04:07:32;;;;;;;0.77;0.50;;;;;;;5.67;86.46;96611.28;10449696;28;20064;-63
2020/12/28 04:12:34;;;;;;;1.33;0.80;;;;;;;5.72;86.19;96601.03;10440401;28;20060;-64
2020/12/28 04:17:35;;;;;;;0.90;0.63;;;;;;;5.76;86.38;96619.94;10440300;28;20042;-64
2020/12/28 04:22:36;;;;;;;0.75;0.60;;;;;;;5.66;86.93;96628.94;10442809;28;20049;-64
2020/12/28 04:27:37;;;;;;;1.70;0.88;;;;;;;5.73;87.09;96601.84;10437506;28;20060;-63
2020/12/28 04:32:39;;;;;;;0.93;0.80;;;;;;;5.74;86.65;96577.09;10433321;28;20656;-63
2020/12/28 04:37:40;;;;;;;0.75;0.60;;;;;;;5.75;86.07;96584.81;10432791;28;20072;-63
2020/12/28 04:42:43;;;;;;;1.52;0.82;;;;;;;5.77;86.23;96582.00;10432101;28;20037;-63
2020/12/28 04:47:44;;;;;;;1.20;0.80;;;;;;;5.82;86.15;96595.44;10426415;28;20349;-63
2020/12/28 04:52:47;;;;;;;0.90;0.63;;;;;;;5.85;85.41;96597.72;10444341;28;20052;-63
2020/12/28 04:57:48;;;;;;;1.27;0.50;;;;;;;5.87;85.08;96592.25;10480134;28;20048;-63
2020/12/28 05:02:50;;;;;;;0.63;0.50;;;;;;;5.85;85.32;96605.66;10479274;28;20087;-64
2020/12/28 05:07:51;;;;;;;1.25;0.60;;;;;;;5.92;85.34;96611.84;10458060;28;20080;-63
2020/12/28 05:12:53;;;;;;;0.98;0.88;;;;;;;5.96;84.90;96622.84;10453638;28;20052;-63
2020/12/28 05:17:54;;;;;;;0.70;0.70;;;;;;;5.98;84.76;96613.78;10478798;28;20052;-65
2020/12/28 05:22:56;;;;;;;0.65;0.40;;;;;;;5.94;84.79;96588.69;10455385;28;20050;-63
2020/12/28 05:27:58;;;;;;;0.68;0.43;;;;;;;5.98;83.92;96586.56;10431780;28;20075;-63
2020/12/28 05:33:04;;;;;;;1.60;0.45;;;;;;;6.03;83.74;96586.00;10459979;28;20044;-64
2020/12/28 05:38:07;;;;;;;1.15;1.05;;;;;;;6.09;83.30;96580.78;10474470;28;20294;-64
2020/12/28 05:43:08;;;;;;;0.80;0.40;;;;;;;6.04;82.94;96591.09;10476324;28;20110;-64
2020/12/28 05:48:16;;;;;;;0.95;0.70;;;;;;;6.03;83.55;96607.13;10475039;28;20056;-63
2020/12/28 05:53:22;;;;;;;2.45;0.60;;;;;;;6.00;83.10;96590.66;10432432;28;20044;-63
2020/12/28 05:58:23;;;;;;;1.00;0.38;;;;;;;5.93;83.29;96576.53;10455578;28;20049;-64
2020/12/28 06:03:28;;;;;;;0.93;0.30;;;;;;;5.97;82.47;96575.16;10446560;28;20065;-65
2020/12/28 06:08:30;;;;;;;1.58;0.60;;;;;;;5.89;82.93;96591.09;10467430;28;20072;-63
2020/12/28 06:13:31;;;;;;;1.20;0.57;;;;;;;5.83;82.99;96607.66;10482707;28;20692;-63
2020/12/28 06:18:32;;;;;;;1.05;0.45;;;;;;;5.86;83.43;96612.56;10445773;28;20437;-63
2020/12/28 06:23:38;;;;;;;1.02;0.70;;;;;;;5.80;83.87;96608.03;10446649;28;20052;-63
2020/12/28 06:28:39;;;;;;;1.63;0.60;;;;;;;5.87;83.68;96614.22;10455272;28;20075;-62
2020/12/28 06:33:48;;;;;;;0.90;0.57;;;;;;;5.86;83.75;96615.22;10465454;28;20056;-64
2020/12/28 06:38:58;;;;;;;0.93;0.55;;;;;;;5.83;84.18;96634.06;10362877;22;20351;-57
2020/12/28 06:44:01;;;;;;;2.55;0.65;;;;;;;5.86;83.34;96638.97;10286728;28;20117;-57
2020/12/28 06:49:03;;;;;;;1.95;0.63;;;;;;;5.86;83.57;96635.53;10309065;28;20122;-58
2020/12/28 06:54:04;;;;;;;0.80;0.60;;;;;;;5.89;83.16;96646.50;10329009;28;20149;-57
2020/12/28 06:59:05;;;;;;;2.17;1.15;;;;;;;5.93;82.71;96637.25;10288009;28;20747;-57
2020/12/28 07:04:07;;;;;;;1.25;0.63;;;;;;;5.91;82.32;96627.84;10298138;28;20569;-57
2020/12/28 07:09:09;;;;;;;1.85;0.90;;;;;;;5.88;82.53;96629.03;10333972;28;20338;-57
2020/12/28 07:14:10;;;;;;;1.15;0.60;;;;;;;5.91;81.88;96628.66;10333894;28;20496;-57
2020/12/28 07:19:11;;;;;;;1.30;0.52;;;;;;;5.81;82.59;96605.19;10341060;28;20050;-56
2020/12/28 07:24:13;;;;;;;2.92;0.70;;;;;;;5.81;82.45;96599.91;10328867;28;20148;-56
2020/12/28 07:29:17;;;;;;;3.47;0.80;;;;;;;5.95;82.34;96616.75;10331794;28;20135;-57
2020/12/28 07:34:20;;;;;;;1.93;0.63;;;;;;;5.98;81.58;96616.41;10332820;28;20046;-56
2020/12/28 07:39:22;;;;;;;2.97;0.90;;;;;;;5.92;80.66;96622.41;10326386;28;20481;-57
2020/12/28 07:44:23;;;;;;;2.35;1.10;;;;;;;5.98;80.50;96620.88;10318243;28;20046;-57
2020/12/28 07:49:26;;;;;;;1.45;1.15;;;;;;;6.05;80.94;96631.50;10319042;28;20128;-57
2020/12/28 07:54:43;;;;;;;1.65;0.90;;;;;;;6.06;80.50;96635.81;10332852;28;20092;-57
2020/12/28 07:59:57;;;;;;;2.75;1.00;;;;;;;6.03;80.25;96633.53;10321414;28;20046;-57
2020/12/28 08:04:59;;;;;;;3.03;2.17;;;;;;;6.01;80.36;96642.44;10320394;28;20147;-56
2020/12/28 08:10:05;;;;;;;3.88;3.47;;;;;;;6.11;80.61;96658.03;10321918;28;20133;-57
2020/12/28 08:15:07;;;;;;;1.00;0.73;;;;;;;6.09;79.81;96661.84;10318293;28;20046;-57
2020/12/28 08:20:12;;;;;;;2.35;0.95;;;;;;;5.93;79.15;96666.28;10334671;28;20053;-57
2020/12/28 08:25:14;;;;;;;1.20;0.80;;;;;;;6.01;79.82;96671.47;10316900;28;20108;-56
2020/12/28 08:30:15;;;;;;;3.20;1.00;;;;;;;6.06;80.13;96639.25;10315066;28;20612;-61
2020/12/28 08:35:16;;;;;;;1.58;1.20;;;;;;;6.34;79.98;96663.16;10330638;28;20139;-56
2020/12/28 08:40:22;;;;;;;1.80;1.55;;;;;;;6.53;79.73;96645.09;10305045;28;20133;-56
2020/12/28 08:45:26;;;;;;;2.72;1.23;;;;;;;6.60;78.80;96626.69;10310660;28;20042;-56
2020/12/28 08:50:34;;;;;;;3.90;2.00;;;;;;;6.66;78.43;96618.00;10313128;28;20042;-57
2020/12/28 08:55:36;;;;;;;4.03;1.27;;;;;;;6.75;77.36;96621.34;10304753;28;20077;-56
2020/12/28 09:00:37;;;;;;;2.20;2.00;;;;;;;6.77;77.98;96620.16;10314069;28;20127;-56
2020/12/28 09:05:38;;;;;;;2.40;1.40;;;;;;;6.80;78.38;96626.88;10313967;28;20045;-57
2020/12/28 09:10:39;;;;;;;1.63;1.52;;;;;;;6.88;78.18;96637.34;10312021;28;20241;-56
2020/12/28 09:15:41;;;;;;;1.85;1.15;;;;;;;7.00;77.75;96635.81;10314127;28;20479;-56
2020/12/28 09:20:42;;;;;;;1.77;1.50;;;;;;;6.93;77.80;96642.88;10314271;28;20766;-57
2020/12/28 09:25:43;;;;;;;1.38;1.27;;;;;;;7.00;78.09;96638.47;10326897;28;20045;-56
2020/12/28 09:30:44;;;;;;;1.85;1.63;;;;;;;6.95;77.85;96622.38;10310971;28;20410;-56
2020/12/28 09:35:46;;;;;;;1.75;1.50;;;;;;;6.95;78.55;96643.53;10264814;28;20062;-59
2020/12/28 09:40:47;;;;;;;3.00;1.33;;;;;;;6.87;78.40;96643.63;10325431;28;20092;-56
2020/12/28 09:45:49;;;;;;;2.88;1.65;;;;;;;6.71;78.83;96632.28;10309734;28;20085;-57
2020/12/28 09:50:50;;;;;;;1.75;1.63;;;;;;;6.73;78.91;96645.31;10309911;28;20050;-57
2020/12/28 09:55:52;;;;;;;2.75;2.00;;;;;;;6.60;79.28;96627.50;10312004;28;20064;-57
2020/12/28 10:00:53;;;;;;;1.58;1.48;;;;;;;6.70;79.32;96649.16;10312787;28;20815;-56
2020/12/28 10:05:54;;;;;;;3.08;2.45;;;;;;;6.64;79.50;96646.44;10311059;28;20058;-56
2020/12/28 10:10:55;;;;;;;1.63;1.50;;;;;;;6.53;79.82;96630.06;10311291;28;20154;-57
2020/12/28 10:15:56;;;;;;;1.38;1.27;;;;;;;6.53;80.20;96640.66;10310657;28;20081;-57
2020/12/28 10:20:58;;;;;;;2.20;1.75;;;;;;;6.55;80.38;96632.53;10311842;28;21201;-56
2020/12/28 10:25:59;;;;;;;1.30;1.20;;;;;;;6.65;79.73;96621.63;10309885;28;20398;-56
2020/12/28 10:31:00;;;;;;;1.35;1.13;;;;;;;6.65;79.28;96622.47;10309120;28;20147;-57
2020/12/28 10:36:02;;;;;;;3.63;1.38;;;;;;;6.70;79.34;96621.91;10307618;28;20049;-56
2020/12/28 10:41:03;;;;;;;1.40;1.30;;;;;;;6.82;78.67;96616.94;10317541;28;20132;-57
2020/12/28 10:46:08;;;;;;;1.75;1.60;;;;;;;6.70;77.01;96583.06;10319798;28;20116;-57
2020/12/28 10:51:11;;;;;;;2.47;1.30;;;;;;;7.22;76.92;96609.34;10314655;28;20125;-57
2020/12/28 10:56:12;;;;;;;2.53;1.50;;;;;;;7.63;74.92;96595.41;10303231;28;20065;-56
2020/12/28 11:01:14;;;;;;;1.90;1.23;;;;;;;8.24;72.24;96581.44;10307733;28;20483;-55
2020/12/28 11:06:15;;;;;;;1.55;1.40;;;;;;;8.60;71.25;96571.56;10305845;28;20084;-55
2020/12/28 11:11:17;;;;;;;2.40;2.08;;;;;;;8.63;70.78;96568.50;10318090;28;20041;-56
2020/12/28 11:16:26;;;;;;;2.22;1.70;;;;;;;8.53;71.55;96571.56;10315653;28;20509;-56
2020/12/28 11:21:28;;;;;;;2.17;1.70;;;;;;;8.17;72.38;96562.06;10312704;28;20469;-55
2020/12/28 11:26:32;;;;;;;1.70;1.50;;;;;;;8.03;73.38;96566.50;10315563;28;20053;-57
2020/12/28 11:31:33;;;;;;;2.38;2.17;;;;;;;7.72;73.77;96565.09;10308145;28;20443;-57
2020/12/28 11:36:34;;;;;;;2.88;2.08;;;;;;;7.39;75.58;96565.72;10317332;28;20058;-56
2020/12/28 11:41:36;;;;;;;1.55;1.45;;;;;;;7.33;75.71;96545.34;10316748;28;20478;-55
2020/12/28 11:46:38;;;;;;;1.38;1.27;;;;;;;7.28;75.10;96547.75;10314849;28;20069;-55
2020/12/28 11:51:40;;;;;;;2.50;1.85;;;;;;;7.24;75.85;96535.94;10318760;28;20507;-55
2020/12/28 11:56:41;;;;;;;2.53;2.00;;;;;;;7.26;76.50;96528.59;10317613;28;20085;-55
2020/12/28 12:01:48;;;;;;;2.08;1.90;;;;;;;7.30;76.17;96513.19;10318002;28;20081;-55
2020/12/28 12:06:52;;;;;;;1.42;1.33;;;;;;;7.27;76.16;96546.13;10310253;28;20083;-58
2020/12/28 12:11:53;;;;;;;3.38;1.92;;;;;;;7.30;76.21;96529.84;10315048;28;20082;-58
2020/12/28 12:16:55;;;;;;;2.47;1.38;;;;;;;7.07;76.22;96495.72;10320547;28;20069;-56
2020/12/28 12:21:56;;;;;;;3.25;1.85;;;;;;;7.21;76.69;96509.84;10317815;28;20046;-56
2020/12/28 12:26:58;;;;;;;1.77;1.67;;;;;;;7.34;77.01;96488.78;10346668;28;20137;-56
2020/12/28 12:31:59;;;;;;;1.88;1.73;;;;;;;7.43;76.13;96498.19;10344222;28;20054;-56
2020/12/28 12:37:00;;;;;;;2.58;2.03;;;;;;;7.36;75.91;96486.75;10347747;22;20065;-72
2020/12/28 12:42:02;;;;;;;2.10;1.90;;;;;;;7.53;75.23;96487.22;10318861;28;20055;-71
2020/12/28 12:47:03;;;;;;;2.67;2.00;;;;;;;7.65;74.83;96487.50;10322077;28;20046;-71
2020/12/28 12:52:12;;;;;;;2.00;1.80;;;;;;;7.63;74.60;96492.16;10339829;28;20435;-69
2020/12/28 12:57:13;;;;;;;2.05;1.85;;;;;;;7.73;74.01;96499.72;10334660;28;20050;-70
2020/12/28 13:02:15;;;;;;;2.40;1.92;;;;;;;7.73;74.17;96495.28;10329825;28;20068;-69
2020/12/28 13:07:19;;;;;;;2.40;2.20;;;;;;;7.74;74.53;96488.94;10334500;28;20057;-71
2020/12/28 13:12:21;;;;;;;2.90;2.50;;;;;;;7.53;74.70;96483.78;10333635;28;20128;-74
2020/12/28 13:17:24;;;;;;;2.53;2.33;;;;;;;7.46;75.12;96485.56;10330335;28;20050;-69
2020/12/28 13:22:25;;;;;;;3.22;2.45;;;;;;;7.43;75.89;96482.31;10332600;28;20065;-73
2020/12/28 13:27:27;;;;;;;2.53;2.33;;;;;;;7.44;76.09;96483.91;10336558;28;20049;-70
2020/12/28 13:32:30;;;;;;;2.22;2.03;;;;;;;7.46;75.41;96474.97;10334602;28;20049;-70
2020/12/28 13:37:31;;;;;;;2.10;1.95;;;;;;;7.39;76.17;96470.47;10331163;28;20625;-68
2020/12/28 13:42:32;;;;;;;3.08;2.63;;;;;;;7.41;76.42;96483.50;10330802;28;20065;-71
2020/12/28 13:47:34;;;;;;;3.83;2.78;;;;;;;7.22;77.76;96495.59;10329694;28;20116;-71
2020/12/28 13:52:35;;;;;;;2.10;1.90;;;;;;;7.24;78.85;96501.53;10332208;28;20049;-74
2020/12/28 13:57:36;;;;;;;2.22;1.80;;;;;;;7.02;79.79;96500.78;10340577;28;20053;-72
2020/12/28 14:02:37;;;;;;;3.42;2.10;;;;;;;6.97;81.14;96504.00;10326611;28;20062;-73
2020/12/28 14:07:39;;;;;;;2.30;1.60;;;;;;;6.78;81.75;96509.94;10334732;28;20392;-72
2020/12/28 14:12:40;;;;;;;2.25;1.90;;;;;;;6.72;82.11;96522.09;10337689;28;20077;-72
2020/12/28 14:17:41;;;;;;;1.35;0.93;;;;;;;6.48;79.72;96526.75;10334428;28;20038;-71
2020/12/28 14:22:43;;;;;;;1.85;1.13;;;;;;;6.40;80.02;96523.44;10333484;28;20501;-71
2020/12/28 14:27:44;;;;;;;1.23;0.93;;;;;;;6.29;80.06;96522.94;10333007;28;20073;-70
2020/12/28 14:32:45;;;;;;;1.33;1.13;;;;;;;6.25;80.00;96521.66;10331087;28;20064;-71
2020/12/28 14:37:47;;;;;;;1.02;0.90;;;;;;;6.23;79.67;96523.69;10331413;28;20057;-71
2020/12/28 14:42:48;;;;;;;1.88;1.13;;;;;;;6.07;80.64;96530.00;10348414;28;20316;-72
2020/12/28 14:47:49;;;;;;;0.90;0.85;;;;;;;5.97;81.08;96529.47;10326986;28;20120;-71
2020/12/28 14:52:50;;;;;;;1.05;0.85;;;;;;;5.83;81.11;96534.56;10322861;28;20054;-72
2020/12/28 14:57:52;;;;;;;1.55;1.30;;;;;;;5.76;81.47;96530.22;10352294;28;20049;-74
2020/12/28 15:02:53;;;;;;;1.60;1.33;;;;;;;5.71;81.31;96541.31;10343533;28;20120;-72
2020/12/28 15:07:54;;;;;;;1.60;1.30;;;;;;;5.68;82.16;96538.25;10332046;28;20500;-73
2020/12/28 15:12:55;;;;;;;1.40;1.30;;;;;;;5.64;83.17;96541.25;10331992;28;20057;-72
2020/12/28 15:17:57;;;;;;;2.25;2.05;;;;;;;5.60;82.56;96550.53;10329865;28;20765;-73
2020/12/28 15:22:58;;;;;;;3.50;3.17;;;;;;;5.54;82.87;96556.53;10329732;28;20065;-73
2020/12/28 15:28:00;;;;;;;2.08;1.73;;;;;;;5.50;82.56;96549.97;10335819;28;20058;-72
2020/12/28 15:33:01;;;;;;;2.50;2.00;;;;;;;5.42;83.21;96552.69;10340629;28;20053;-74
2020/12/28 15:38:02;;;;;;;2.00;1.80;;;;;;;5.32;83.16;96558.25;10343114;28;20115;-71
2020/12/28 15:43:04;;;;;;;2.72;2.13;;;;;;;5.44;83.15;96572.63;10362410;28;20053;-72
2020/12/28 15:48:05;;;;;;;1.65;1.55;;;;;;;5.52;82.57;96571.72;10333555;28;20109;-74
2020/12/28 15:53:08;;;;;;;1.95;1.55;;;;;;;5.39;82.62;96566.25;10334670;28;20057;-73
2020/12/28 15:58:10;;;;;;;1.50;1.40;;;;;;;5.41;82.91;96582.72;10330881;28;20091;-72
2020/12/28 16:03:13;;;;;;;2.33;2.13;;;;;;;5.36;83.36;96588.53;10372041;28;20081;-70
2020/12/28 16:08:14;;;;;;;2.80;2.55;;;;;;;5.43;83.03;96596.53;10366350;28;20058;-73
2020/12/28 16:13:15;;;;;;;3.33;2.53;;;;;;;5.47;82.60;96588.09;10362347;28;20563;-72
2020/12/28 16:18:16;;;;;;;2.75;2.50;;;;;;;5.35;82.69;96601.91;10334771;28;20053;-72
2020/12/28 16:23:18;;;;;;;3.30;2.20;;;;;;;5.20;83.03;96588.69;10332935;28;20057;-71
2020/12/28 16:28:19;;;;;;;1.98;1.77;;;;;;;5.18;82.94;96601.22;10334869;28;20061;-71
2020/12/28 16:33:21;;;;;;;3.13;2.30;;;;;;;5.04;83.39;96602.84;10328207;28;20042;-72
2020/12/28 16:38:22;;;;;;;3.28;2.00;;;;;;;5.06;83.67;96600.84;10331965;28;20052;-71
2020/12/28 16:43:23;;;;;;;2.70;2.35;;;;;;;5.10;83.26;96612.66;10333369;28;20065;-71
2020/12/28 16:48:25;;;;;;;2.08;1.88;;;;;;;5.01;83.72;96614.53;10334740;28;20093;-67
2020/12/28 16:53:26;;;;;;;2.70;2.10;;;;;;;5.05;84.07;96621.09;10334297;28;20487;-68
2020/12/28 16:58:28;;;;;;;2.55;1.90;;;;;;;5.21;83.06;96625.44;10332939;28;20054;-70
2020/12/28 17:03:30;;;;;;;2.60;2.40;;;;;;;5.20;83.92;96621.16;10331938;28;20424;-72
2020/12/28 17:08:31;;;;;;;3.17;2.70;;;;;;;5.27;83.79;96619.44;10340736;28;20042;-72
2020/12/28 17:13:32;;;;;;;2.83;2.53;;;;;;;5.34;83.13;96621.34;10340887;28;20037;-70
2020/12/28 17:18:37;;;;;;;3.72;2.53;;;;;;;5.29;82.31;96622.72;10342309;28;20496;-69
2020/12/28 17:23:39;;;;;;;3.33;2.88;;;;;;;5.21;82.72;96622.78;10340662;28;20057;-70
2020/12/28 17:28:41;;;;;;;5.00;3.22;;;;;;;5.13;82.99;96625.50;10335639;28;20679;-69
2020/12/28 17:33:44;;;;;;;5.40;4.40;;;;;;;5.18;82.78;96635.50;10332870;28;20049;-69
2020/12/28 17:38:47;;;;;;;3.33;2.93;;;;;;;5.09;83.08;96632.94;10336902;28;20140;-71
2020/12/28 17:43:48;;;;;;;3.10;2.78;;;;;;;5.21;82.36;96651.81;10365442;28;20346;-71
2020/12/28 17:48:50;;;;;;;4.05;2.53;;;;;;;5.19;82.51;96643.22;10338842;28;20049;-70
2020/12/28 17:53:54;;;;;;;3.15;2.28;;;;;;;5.27;82.08;96648.44;10320266;28;20493;-70
2020/12/28 17:58:56;;;;;;;2.35;2.03;;;;;;;5.19;81.87;96643.22;10322988;28;20441;-70
2020/12/28 18:03:57;;;;;;;4.60;2.40;;;;;;;5.05;82.03;96659.84;10323905;28;20065;-69
2020/12/28 18:08:59;;;;;;;3.40;2.47;;;;;;;4.98;82.65;96664.16;10332212;28;20058;-70
2020/12/28 18:14:01;;;;;;;3.13;2.60;;;;;;;4.92;81.73;96663.91;10335324;28;20042;-70
2020/12/28 18:19:03;;;;;;;4.57;2.95;;;;;;;4.99;81.51;96658.72;10328818;28;20504;-70
2020/12/28 18:24:05;;;;;;;2.40;2.20;;;;;;;4.98;80.80;96661.53;10334269;28;20045;-70
2020/12/28 18:29:07;;;;;;;2.83;2.35;;;;;;;5.05;80.47;96649.28;10334068;28;20041;-70
2020/12/28 18:34:12;;;;;;;3.03;2.53;;;;;;;5.02;80.32;96652.28;10349386;28;21363;-70
2020/12/28 18:39:20;;;;;;;2.58;2.38;;;;;;;4.90;80.54;96638.69;10320277;23;20101;-69
2020/12/28 18:44:21;;;;;;;3.05;2.60;;;;;;;5.14;80.62;96654.31;10361513;28;20096;-69
2020/12/28 18:49:22;;;;;;;4.10;3.45;;;;;;;5.18;79.79;96652.16;10379520;28;20054;-68
2020/12/28 18:54:26;;;;;;;5.00;3.55;;;;;;;5.25;79.63;96646.97;10349472;28;20060;-68
2020/12/28 18:59:32;;;;;;;3.85;3.45;;;;;;;5.32;79.74;96667.19;10383223;28;20054;-69
2020/12/28 19:04:33;;;;;;;3.47;3.03;;;;;;;5.38;81.47;96672.75;10388352;28;20063;-70
2020/12/28 19:09:35;;;;;;;3.53;3.13;;;;;;;5.53;81.09;96665.69;10368087;28;20037;-69
2020/12/28 19:14:36;;;;;;;4.63;3.63;;;;;;;5.51;79.03;96666.84;10352694;28;20061;-68
2020/12/28 19:19:39;;;;;;;4.20;3.85;;;;;;;5.39;78.82;96664.66;10352441;28;20156;-66
2020/12/28 19:24:41;;;;;;;3.22;2.92;;;;;;;5.38;78.97;96651.66;10310821;28;20034;-66
2020/12/28 19:29:42;;;;;;;3.55;2.65;;;;;;;5.37;77.40;96650.00;10310989;28;20038;-70
2020/12/28 19:34:43;;;;;;;3.55;2.33;;;;;;;5.21;77.26;96678.16;10314392;28;20061;-67
2020/12/28 19:39:44;;;;;;;2.60;2.22;;;;;;;5.13;77.86;96671.16;10309787;28;20046;-67
2020/12/28 19:44:46;;;;;;;4.57;3.20;;;;;;;5.09;78.84;96679.59;10338653;28;20519;-67
2020/12/28 19:49:47;;;;;;;3.30;3.00;;;;;;;5.03;79.05;96696.09;10309308;28;20066;-65
2020/12/28 19:54:48;;;;;;;3.45;3.15;;;;;;;5.05;80.14;96675.66;10300836;28;20082;-67
2020/12/28 19:59:50;;;;;;;5.63;3.92;;;;;;;5.04;80.06;96685.38;10292907;28;20176;-68
2020/12/28 20:04:51;;;;;;;6.20;4.13;;;;;;;4.88;80.42;96661.75;10300151;28;20053;-67
2020/12/28 20:09:52;;;;;;;3.45;3.15;;;;;;;4.84;80.83;96681.56;10295290;28;20080;-68
2020/12/28 20:14:54;;;;;;;4.53;4.13;;;;;;;4.73;80.87;96683.59;10293140;28;20086;-65
2020/12/28 20:19:55;;;;;;;4.93;3.70;;;;;;;4.67;81.45;96689.56;10308026;28;20838;-66
2020/12/28 20:24:56;;;;;;;4.60;4.03;;;;;;;4.73;81.14;96685.44;10299804;28;20133;-68
2020/12/28 20:29:57;;;;;;;5.15;4.65;;;;;;;4.58;81.43;96686.16;10301406;28;20050;-67
2020/12/28 20:34:59;;;;;;;5.93;5.28;;;;;;;4.54;81.22;96686.69;10303494;28;20134;-66
2020/12/28 20:40:31;;;;;;;6.07;5.30;;;;;;;4.59;81.15;96690.44;10321549;28;20145;-65
2020/12/28 20:45:32;;;;;;;5.82;5.32;;;;;;;4.52;80.75;96684.22;10303283;28;20050;-66
2020/12/28 20:50:34;;;;;;;5.68;5.18;;;;;;;4.51;81.04;96693.09;10304818;28;20132;-65
2020/12/28 20:55:35;;;;;;;7.90;5.15;;;;;;;4.45;81.55;96695.63;10311051;28;20129;-66
2020/12/28 21:00:39;;;;;;;6.32;5.72;;;;;;;4.39;81.75;96705.00;10298562;28;20184;-65
2020/12/28 21:05:41;;;;;;;6.40;5.80;;;;;;;4.40;81.37;96706.66;10299917;28;20650;-65
2020/12/28 21:10:47;;;;;;;5.80;5.20;;;;;;;4.52;80.45;96709.72;10298580;28;20100;-65
2020/12/28 21:15:48;;;;;;;5.97;5.10;;;;;;;4.57;79.77;96697.69;10311865;28;20062;-65
2020/12/28 21:20:49;;;;;;;5.30;4.80;;;;;;;4.59;79.49;96700.97;10338956;28;20062;-65
2020/12/28 21:25:51;;;;;;;5.57;5.07;;;;;;;4.42;78.58;96694.13;10329789;28;20065;-66
2020/12/28 21:30:52;;;;;;;5.65;5.05;;;;;;;4.19;79.24;96683.56;10313267;28;20053;-65
2020/12/28 21:35:53;;;;;;;5.10;4.53;;;;;;;4.27;79.44;96691.41;10343087;28;20064;-66
2020/12/28 21:40:54;;;;;;;5.03;4.57;;;;;;;4.38;78.33;96703.38;10354410;28;20050;-66
2020/12/28 21:45:55;;;;;;;5.13;4.55;;;;;;;4.39;78.43;96705.81;10339202;28;20049;-65
2020/12/28 21:50:57;;;;;;;4.35;3.58;;;;;;;4.34;77.94;96702.06;10313853;28;20125;-65
2020/12/28 21:55:58;;;;;;;3.33;2.97;;;;;;;4.29;77.74;96672.81;10310022;28;20070;-67
2020/12/28 22:00:59;;;;;;;3.95;3.55;;;;;;;4.52;76.76;96701.81;10306482;28;20042;-66
2020/12/28 22:06:01;;;;;;;3.50;3.00;;;;;;;4.43;76.17;96685.25;10307979;28;20113;-65
2020/12/28 22:11:02;;;;;;;4.63;2.70;;;;;;;4.47;75.98;96683.91;10298976;28;20125;-67
2020/12/28 22:16:03;;;;;;;3.25;2.78;;;;;;;4.49;76.25;96673.19;10306984;28;20046;-66
2020/12/28 22:21:04;;;;;;;2.78;2.30;;;;;;;4.54;76.10;96681.41;10299282;28;20074;-68
2020/12/28 22:26:06;;;;;;;3.60;2.85;;;;;;;4.47;75.52;96673.38;10296783;28;20042;-67
2020/12/28 22:31:07;;;;;;;3.03;2.72;;;;;;;4.51;76.21;96676.50;10300283;28;20061;-66
2020/12/28 22:36:14;;;;;;;3.63;3.05;;;;;;;4.57;76.27;96688.97;10300449;28;20078;-66
2020/12/28 22:41:15;;;;;;;3.83;3.17;;;;;;;4.49;76.37;96689.84;10344800;28;20038;-68
2020/12/28 22:46:17;;;;;;;3.92;3.20;;;;;;;4.49;76.66;96684.56;10338567;28;20061;-67
2020/12/28 22:51:19;;;;;;;4.55;2.95;;;;;;;4.52;76.35;96689.50;10337096;28;20455;-67
2020/12/28 22:56:20;;;;;;;3.33;3.03;;;;;;;4.55;75.89;96686.50;10345084;28;20050;-66
2020/12/28 23:01:26;;;;;;;3.72;3.25;;;;;;;4.41;76.00;96672.25;10339303;28;20451;-69
2020/12/28 23:06:28;;;;;;;3.90;3.58;;;;;;;4.52;76.12;96689.50;10346725;28;20081;-67
2020/12/28 23:11:29;;;;;;;4.00;3.42;;;;;;;4.39;76.10;96678.69;10349268;28;20057;-68
2020/12/28 23:16:31;;;;;;;3.38;3.08;;;;;;;4.45;75.89;96692.97;10347447;28;20057;-66
2020/12/28 23:21:32;;;;;;;3.38;3.08;;;;;;;4.38;76.55;96685.78;10351323;28;20141;-67
2020/12/28 23:26:34;;;;;;;2.80;2.35;;;;;;;4.40;76.04;96701.41;10346562;28;20107;-67
2020/12/28 23:31:35;;;;;;;2.80;2.05;;;;;;;4.41;76.64;96697.75;10343929;28;20429;-67
2020/12/28 23:36:36;;;;;;;5.68;2.78;;;;;;;4.43;75.88;96698.44;10352138;28;20050;-65
2020/12/28 23:41:37;;;;;;;3.42;3.13;;;;;;;4.44;76.33;96694.78;10348420;28;20126;-66